createdAt,value
2018-04-27T00:00:11.789Z,0
2018-04-27T00:00:37.976Z,0
2018-04-27T00:01:04.169Z,0
2018-04-27T00:01:30.390Z,0
2018-04-27T00:01:56.579Z,0
2018-04-27T00:02:22.758Z,0
2018-04-27T00:02:48.955Z,0
2018-04-27T00:03:15.169Z,0
2018-04-27T00:03:41.356Z,0
2018-04-27T00:04:07.574Z,0
2018-04-27T00:04:33.761Z,0
2018-04-27T00:05:00.009Z,0
2018-04-27T00:05:26.173Z,0
2018-04-27T00:05:52.358Z,0
2018-04-27T00:06:18.544Z,0
2018-04-27T00:06:44.728Z,0
2018-04-27T00:07:10.919Z,0
2018-04-27T00:07:37.106Z,0
2018-04-27T00:08:03.286Z,0
2018-04-27T00:08:29.492Z,0
2018-04-27T00:08:55.734Z,0
2018-04-27T00:09:21.924Z,0
2018-04-27T00:09:48.136Z,0
2018-04-27T00:10:14.326Z,0
2018-04-27T00:10:40.510Z,0
2018-04-27T00:11:06.704Z,0
2018-04-27T00:11:32.887Z,0
2018-04-27T00:11:59.088Z,0
2018-04-27T00:12:25.330Z,0
2018-04-27T00:12:51.533Z,0
2018-04-27T00:13:17.735Z,0
2018-04-27T00:13:43.955Z,0
2018-04-27T00:14:10.141Z,0
2018-04-27T00:14:36.365Z,0
2018-04-27T00:15:02.560Z,0
2018-04-27T00:15:28.742Z,0
2018-04-27T00:15:54.931Z,0
2018-04-27T00:16:21.117Z,0
2018-04-27T00:16:47.335Z,0
2018-04-27T00:17:13.527Z,0
2018-04-27T00:17:39.716Z,0
2018-04-27T00:18:05.932Z,0
2018-04-27T00:18:32.122Z,0
2018-04-27T00:18:58.304Z,0
2018-04-27T00:19:24.492Z,0
2018-04-27T00:19:50.680Z,0
2018-04-27T00:20:16.907Z,0
2018-04-27T00:20:43.090Z,0
2018-04-27T00:21:09.273Z,0
2018-04-27T00:21:35.458Z,0
2018-04-27T00:22:01.647Z,0
2018-04-27T00:22:27.840Z,0
2018-04-27T00:22:54.031Z,0
2018-04-27T00:23:20.220Z,0
2018-04-27T00:23:46.410Z,0
2018-04-27T00:24:12.613Z,0
2018-04-27T00:24:38.814Z,0
2018-04-27T00:25:05.006Z,0
2018-04-27T00:25:31.190Z,0
2018-04-27T00:25:57.382Z,0
2018-04-27T00:26:23.570Z,0
2018-04-27T00:26:49.798Z,0
2018-04-27T00:27:15.980Z,0
2018-04-27T00:27:42.167Z,0
2018-04-27T00:28:08.355Z,0
2018-04-27T00:28:34.547Z,0
2018-04-27T00:29:00.731Z,0
2018-04-27T00:29:26.922Z,0
2018-04-27T00:29:53.118Z,0
2018-04-27T00:30:19.309Z,0
2018-04-27T00:30:45.528Z,0
2018-04-27T00:31:11.722Z,0
2018-04-27T00:31:37.910Z,0
2018-04-27T00:32:04.095Z,0
2018-04-27T00:32:30.288Z,0
2018-04-27T00:32:56.469Z,0
2018-04-27T00:33:22.660Z,0
2018-04-27T00:33:48.851Z,0
2018-04-27T00:34:15.125Z,0
2018-04-27T00:34:41.227Z,0
2018-04-27T00:35:07.415Z,0
2018-04-27T00:35:33.599Z,0
2018-04-27T00:35:59.793Z,0
2018-04-27T00:36:25.975Z,0
2018-04-27T00:36:52.163Z,0
2018-04-27T00:37:18.350Z,0
2018-04-27T00:37:44.534Z,0
2018-04-27T00:38:10.721Z,0
2018-04-27T00:38:36.909Z,0
2018-04-27T00:39:03.097Z,0
2018-04-27T00:39:29.282Z,0
2018-04-27T00:39:55.471Z,0
2018-04-27T00:40:21.694Z,0
2018-04-27T00:40:47.886Z,0
2018-04-27T00:41:14.070Z,0
2018-04-27T00:41:40.258Z,0
2018-04-27T00:42:06.445Z,0
2018-04-27T00:42:32.640Z,0
2018-04-27T00:42:58.823Z,0
2018-04-27T00:43:25.016Z,0
2018-04-27T00:43:51.203Z,0
2018-04-27T00:44:17.394Z,0
2018-04-27T00:44:43.619Z,0
2018-04-27T00:45:09.799Z,0
2018-04-27T00:45:36.025Z,0
2018-04-27T00:46:02.212Z,0
2018-04-27T00:46:28.402Z,0
2018-04-27T00:46:54.583Z,0
2018-04-27T00:47:20.775Z,0
2018-04-27T00:47:46.960Z,0
2018-04-27T00:48:13.154Z,0
2018-04-27T00:48:39.375Z,0
2018-04-27T00:49:05.602Z,0
2018-04-27T00:49:31.787Z,0
2018-04-27T00:49:57.973Z,0
2018-04-27T00:50:24.169Z,0
2018-04-27T00:50:50.350Z,0
2018-04-27T00:51:16.541Z,0
2018-04-27T00:51:42.730Z,0
2018-04-27T00:52:08.919Z,0
2018-04-27T00:52:35.100Z,0
2018-04-27T00:53:01.321Z,0
2018-04-27T00:53:27.509Z,0
2018-04-27T00:53:53.699Z,0
2018-04-27T00:54:19.882Z,0
2018-04-27T00:54:46.070Z,0
2018-04-27T00:55:12.287Z,0
2018-04-27T00:55:38.480Z,0
2018-04-27T00:56:04.664Z,0
2018-04-27T00:56:30.893Z,0
2018-04-27T00:56:57.084Z,0
2018-04-27T00:57:23.264Z,0
2018-04-27T00:57:49.454Z,0
2018-04-27T00:58:15.639Z,0
2018-04-27T00:58:41.825Z,0
2018-04-27T00:59:08.017Z,0
2018-04-27T00:59:34.233Z,0
2018-04-27T01:00:00.420Z,0
2018-04-27T01:00:26.649Z,0
2018-04-27T01:00:52.890Z,0
2018-04-27T01:01:19.086Z,0
2018-04-27T01:01:45.301Z,0
2018-04-27T01:02:11.485Z,0
2018-04-27T01:02:37.713Z,0
2018-04-27T01:03:03.933Z,0
2018-04-27T01:03:30.118Z,0
2018-04-27T01:03:56.314Z,0
2018-04-27T01:04:22.495Z,0
2018-04-27T01:04:48.678Z,0
2018-04-27T01:05:14.869Z,0
2018-04-27T01:05:41.056Z,0
2018-04-27T01:06:07.244Z,0
2018-04-27T01:06:33.501Z,0
2018-04-27T01:06:59.693Z,0
2018-04-27T01:07:25.876Z,0
2018-04-27T01:07:52.066Z,0
2018-04-27T01:08:18.252Z,0
2018-04-27T01:08:44.444Z,0
2018-04-27T01:09:10.636Z,0
2018-04-27T01:09:36.820Z,0
2018-04-27T01:10:03.038Z,0
2018-04-27T01:10:29.299Z,0
2018-04-27T01:10:55.471Z,0
2018-04-27T01:11:21.668Z,0
2018-04-27T01:11:47.861Z,0
2018-04-27T01:12:14.040Z,0
2018-04-27T01:12:40.242Z,0
2018-04-27T01:13:06.425Z,0
2018-04-27T01:13:32.652Z,0
2018-04-27T01:13:58.879Z,0
2018-04-27T01:14:25.063Z,0
2018-04-27T01:14:51.256Z,0
2018-04-27T01:15:17.442Z,0
2018-04-27T01:15:43.638Z,0
2018-04-27T01:16:09.825Z,0
2018-04-27T01:16:36.044Z,0
2018-04-27T01:17:02.239Z,0
2018-04-27T01:17:28.422Z,0
2018-04-27T01:17:54.612Z,0
2018-04-27T01:18:20.801Z,0
2018-04-27T01:18:46.992Z,0
2018-04-27T01:19:13.178Z,0
2018-04-27T01:19:39.363Z,0
2018-04-27T01:20:05.544Z,0
2018-04-27T01:20:31.730Z,0
2018-04-27T01:20:57.923Z,0
2018-04-27T01:21:24.106Z,0
2018-04-27T01:21:50.365Z,0
2018-04-27T01:22:16.578Z,0
2018-04-27T01:22:42.760Z,0
2018-04-27T01:23:08.944Z,0
2018-04-27T01:23:35.136Z,0
2018-04-27T01:24:01.355Z,0
2018-04-27T01:24:27.550Z,0
2018-04-27T01:24:53.727Z,0
2018-04-27T01:25:19.948Z,0
2018-04-27T01:25:46.131Z,0
2018-04-27T01:26:12.328Z,0
2018-04-27T01:26:38.514Z,0
2018-04-27T01:27:04.772Z,0
2018-04-27T01:27:30.960Z,0
2018-04-27T01:27:57.150Z,0
2018-04-27T01:28:23.340Z,0
2018-04-27T01:28:49.528Z,0
2018-04-27T01:29:15.712Z,0
2018-04-27T01:29:41.939Z,0
2018-04-27T01:30:08.129Z,0
2018-04-27T01:30:34.317Z,0
2018-04-27T01:31:00.505Z,0
2018-04-27T01:31:26.690Z,0
2018-04-27T01:31:52.948Z,0
2018-04-27T01:32:19.136Z,0
2018-04-27T01:32:45.327Z,0
2018-04-27T01:33:11.516Z,0
2018-04-27T01:33:37.706Z,0
2018-04-27T01:34:03.890Z,0
2018-04-27T01:34:30.085Z,0
2018-04-27T01:34:56.268Z,0
2018-04-27T01:35:22.497Z,0
2018-04-27T01:35:48.647Z,0
2018-04-27T01:36:14.831Z,0
2018-04-27T01:36:41.019Z,0
2018-04-27T01:37:07.206Z,0
2018-04-27T01:37:33.397Z,0
2018-04-27T01:37:59.616Z,0
2018-04-27T01:38:25.835Z,0
2018-04-27T01:38:52.020Z,0
2018-04-27T01:39:18.275Z,0
2018-04-27T01:39:44.498Z,0
2018-04-27T01:40:10.685Z,0
2018-04-27T01:40:36.912Z,0
2018-04-27T01:41:03.097Z,0
2018-04-27T01:41:29.287Z,0
2018-04-27T01:41:55.470Z,0
2018-04-27T01:42:21.683Z,0
2018-04-27T01:42:47.877Z,0
2018-04-27T01:43:14.062Z,0
2018-04-27T01:43:40.244Z,0
2018-04-27T01:44:06.433Z,0
2018-04-27T01:44:32.617Z,0
2018-04-27T01:44:58.796Z,0
2018-04-27T01:45:24.986Z,0
2018-04-27T01:45:51.170Z,0
2018-04-27T01:46:17.364Z,0
2018-04-27T01:46:43.550Z,0
2018-04-27T01:47:09.766Z,0
2018-04-27T01:47:35.950Z,0
2018-04-27T01:48:02.173Z,0
2018-04-27T01:48:28.403Z,0
2018-04-27T01:48:54.592Z,0
2018-04-27T01:49:20.808Z,0
2018-04-27T01:49:47.002Z,0
2018-04-27T01:50:13.181Z,0
2018-04-27T01:50:39.376Z,0
2018-04-27T01:51:05.563Z,0
2018-04-27T01:51:31.753Z,0
2018-04-27T01:51:57.945Z,0
2018-04-27T01:52:24.128Z,0
2018-04-27T01:52:50.333Z,0
2018-04-27T01:53:16.544Z,0
2018-04-27T01:53:42.737Z,0
2018-04-27T01:54:08.918Z,0
2018-04-27T01:54:35.105Z,0
2018-04-27T01:55:01.292Z,0
2018-04-27T01:55:27.482Z,0
2018-04-27T01:55:53.667Z,0
2018-04-27T01:56:19.843Z,0
2018-04-27T01:56:46.039Z,0
2018-04-27T01:57:12.226Z,0
2018-04-27T01:57:38.406Z,0
2018-04-27T01:58:04.591Z,0
2018-04-27T01:58:30.787Z,0
2018-04-27T01:58:56.979Z,0
2018-04-27T01:59:23.164Z,0
2018-04-27T01:59:49.382Z,0
2018-04-27T02:00:15.573Z,0
2018-04-27T02:00:41.762Z,0
2018-04-27T02:01:07.976Z,0
2018-04-27T02:01:34.163Z,0
2018-04-27T02:02:00.385Z,0
2018-04-27T02:02:26.572Z,0
2018-04-27T02:02:52.755Z,0
2018-04-27T02:03:18.942Z,0
2018-04-27T02:03:45.132Z,0
2018-04-27T02:04:11.327Z,0
2018-04-27T02:04:37.577Z,0
2018-04-27T02:05:03.756Z,0
2018-04-27T02:05:29.946Z,0
2018-04-27T02:05:56.138Z,0
2018-04-27T02:06:22.318Z,0
2018-04-27T02:06:48.509Z,0
2018-04-27T02:07:14.725Z,0
2018-04-27T02:07:40.916Z,0
2018-04-27T02:08:07.103Z,0
2018-04-27T02:08:33.349Z,0
2018-04-27T02:08:59.526Z,0
2018-04-27T02:09:25.695Z,0
2018-04-27T02:09:51.863Z,0
2018-04-27T02:10:18.028Z,0
2018-04-27T02:10:44.193Z,0
2018-04-27T02:11:10.358Z,0
2018-04-27T02:11:36.532Z,0
2018-04-27T02:12:02.715Z,0
2018-04-27T02:12:28.871Z,0
2018-04-27T02:12:55.020Z,0
2018-04-27T02:13:21.157Z,0
2018-04-27T02:13:47.297Z,0
2018-04-27T02:14:13.432Z,0
2018-04-27T02:14:39.564Z,0
2018-04-27T02:15:05.705Z,0
2018-04-27T02:15:31.844Z,0
2018-04-27T02:15:57.981Z,0
2018-04-27T02:16:24.145Z,0
2018-04-27T02:16:50.277Z,0
2018-04-27T02:17:16.415Z,0
2018-04-27T02:17:42.602Z,0
2018-04-27T02:18:08.743Z,0
2018-04-27T02:18:34.884Z,0
2018-04-27T02:19:01.042Z,0
2018-04-27T02:19:27.182Z,0
2018-04-27T02:19:53.313Z,0
2018-04-27T02:20:19.452Z,0
2018-04-27T02:20:45.592Z,0
2018-04-27T02:21:11.731Z,0
2018-04-27T02:21:37.870Z,0
2018-04-27T02:22:04.007Z,0
2018-04-27T02:22:30.148Z,0
2018-04-27T02:22:56.282Z,0
2018-04-27T02:23:22.414Z,0
2018-04-27T02:23:48.552Z,0
2018-04-27T02:24:14.683Z,0
2018-04-27T02:24:40.854Z,0
2018-04-27T02:25:07.013Z,0
2018-04-27T02:25:33.147Z,0
2018-04-27T02:25:59.308Z,0
2018-04-27T02:26:25.442Z,0
2018-04-27T02:26:51.580Z,0
2018-04-27T02:27:17.714Z,0
2018-04-27T02:27:43.873Z,0
2018-04-27T02:28:10.016Z,0
2018-04-27T02:28:36.149Z,0
2018-04-27T02:29:02.286Z,0
2018-04-27T02:29:28.420Z,0
2018-04-27T02:29:54.637Z,0
2018-04-27T02:30:20.772Z,0
2018-04-27T02:30:46.933Z,0
2018-04-27T02:31:13.091Z,0
2018-04-27T02:31:39.242Z,0
2018-04-27T02:32:05.390Z,0
2018-04-27T02:32:31.549Z,0
2018-04-27T02:32:57.686Z,0
2018-04-27T02:33:23.846Z,0
2018-04-27T02:33:50.011Z,0
2018-04-27T02:34:16.173Z,0
2018-04-27T02:34:42.354Z,0
2018-04-27T02:35:08.520Z,0
2018-04-27T02:35:34.659Z,0
2018-04-27T02:36:00.821Z,0
2018-04-27T02:36:26.982Z,0
2018-04-27T02:36:53.122Z,0
2018-04-27T02:37:19.257Z,0
2018-04-27T02:37:45.386Z,0
2018-04-27T02:38:11.537Z,0
2018-04-27T02:38:37.688Z,0
2018-04-27T02:39:03.845Z,0
2018-04-27T02:39:30.009Z,0
2018-04-27T02:39:56.133Z,0
2018-04-27T02:40:22.277Z,0
2018-04-27T02:40:48.466Z,0
2018-04-27T02:41:14.621Z,0
2018-04-27T02:41:40.778Z,0
2018-04-27T02:42:06.971Z,0
2018-04-27T02:42:33.123Z,0
2018-04-27T02:42:59.290Z,0
2018-04-27T02:43:25.454Z,0
2018-04-27T02:43:51.641Z,0
2018-04-27T02:44:17.783Z,0
2018-04-27T02:44:43.941Z,0
2018-04-27T02:45:10.098Z,0
2018-04-27T02:45:36.267Z,0
2018-04-27T02:46:02.478Z,0
2018-04-27T02:46:28.611Z,0
2018-04-27T02:46:54.765Z,0
2018-04-27T02:47:20.975Z,0
2018-04-27T02:47:47.108Z,0
2018-04-27T02:48:13.267Z,0
2018-04-27T02:48:39.455Z,0
2018-04-27T02:49:05.612Z,0
2018-04-27T02:49:31.776Z,0
2018-04-27T02:49:57.942Z,0
2018-04-27T02:50:24.118Z,0
2018-04-27T02:50:50.280Z,0
2018-04-27T02:51:16.423Z,0
2018-04-27T02:51:42.553Z,0
2018-04-27T02:52:08.714Z,0
2018-04-27T02:52:34.866Z,0
2018-04-27T02:53:01.079Z,0
2018-04-27T02:53:27.226Z,0
2018-04-27T02:53:53.351Z,0
2018-04-27T02:54:19.491Z,0
2018-04-27T02:54:45.676Z,0
2018-04-27T02:55:11.845Z,0
2018-04-27T02:55:38.001Z,0
2018-04-27T02:56:04.139Z,0
2018-04-27T02:56:30.278Z,0
2018-04-27T02:56:56.409Z,0
2018-04-27T02:57:22.581Z,0
2018-04-27T02:57:48.744Z,0
2018-04-27T02:58:14.880Z,0
2018-04-27T02:58:41.046Z,0
2018-04-27T02:59:07.201Z,0
2018-04-27T02:59:33.336Z,0
2018-04-27T02:59:59.479Z,0
2018-04-27T03:00:25.611Z,0
2018-04-27T03:00:51.744Z,0
2018-04-27T03:01:17.939Z,0
2018-04-27T03:01:44.074Z,0
2018-04-27T03:02:10.209Z,0
2018-04-27T03:02:36.355Z,0
2018-04-27T03:03:02.513Z,0
2018-04-27T03:03:28.678Z,0
2018-04-27T03:03:54.825Z,0
2018-04-27T03:04:21.005Z,0
2018-04-27T03:04:47.173Z,0
2018-04-27T03:05:13.335Z,0
2018-04-27T03:05:39.471Z,0
2018-04-27T03:06:05.613Z,0
2018-04-27T03:06:31.750Z,0
2018-04-27T03:06:57.930Z,0
2018-04-27T03:07:24.095Z,0
2018-04-27T03:07:50.288Z,0
2018-04-27T03:08:16.447Z,0
2018-04-27T03:08:42.590Z,0
2018-04-27T03:09:08.750Z,0
2018-04-27T03:09:34.912Z,0
2018-04-27T03:10:01.073Z,0
2018-04-27T03:10:27.250Z,0
2018-04-27T03:10:53.388Z,0
2018-04-27T03:11:19.529Z,0
2018-04-27T03:11:45.686Z,0
2018-04-27T03:12:11.816Z,0
2018-04-27T03:12:37.967Z,0
2018-04-27T03:13:04.124Z,0
2018-04-27T03:13:30.255Z,0
2018-04-27T03:13:56.398Z,0
2018-04-27T03:14:22.567Z,0
2018-04-27T03:14:48.703Z,0
2018-04-27T03:15:14.845Z,0
2018-04-27T03:15:41.024Z,0
2018-04-27T03:16:07.164Z,0
2018-04-27T03:16:33.340Z,0
2018-04-27T03:16:59.477Z,0
2018-04-27T03:17:25.609Z,0
2018-04-27T03:17:51.749Z,0
2018-04-27T03:18:17.886Z,0
2018-04-27T03:18:44.021Z,0
2018-04-27T03:19:10.155Z,0
2018-04-27T03:19:36.294Z,0
2018-04-27T03:20:02.452Z,0
2018-04-27T03:20:28.591Z,0
2018-04-27T03:20:54.727Z,0
2018-04-27T03:21:20.867Z,0
2018-04-27T03:21:47.025Z,0
2018-04-27T03:22:13.160Z,0
2018-04-27T03:22:39.297Z,0
2018-04-27T03:23:05.485Z,0
2018-04-27T03:23:31.661Z,0
2018-04-27T03:23:57.924Z,0
2018-04-27T03:24:23.943Z,0
2018-04-27T03:24:50.087Z,0
2018-04-27T03:25:16.229Z,0
2018-04-27T03:25:42.395Z,0
2018-04-27T03:26:08.556Z,0
2018-04-27T03:26:34.685Z,0
2018-04-27T03:27:00.819Z,0
2018-04-27T03:27:26.960Z,0
2018-04-27T03:27:53.098Z,0
2018-04-27T03:28:19.276Z,0
2018-04-27T03:28:45.398Z,0
2018-04-27T03:29:11.540Z,0
2018-04-27T03:29:37.697Z,0
2018-04-27T03:30:03.836Z,0
2018-04-27T03:30:30.049Z,0
2018-04-27T03:30:56.245Z,0
2018-04-27T03:31:22.445Z,0
2018-04-27T03:31:48.641Z,0
2018-04-27T03:32:14.824Z,0
2018-04-27T03:32:41.004Z,0
2018-04-27T03:33:07.138Z,0
2018-04-27T03:33:33.277Z,0
2018-04-27T03:33:59.437Z,0
2018-04-27T03:34:25.657Z,0
2018-04-27T03:34:51.709Z,0
2018-04-27T03:35:17.845Z,0
2018-04-27T03:35:43.992Z,0
2018-04-27T03:36:10.130Z,0
2018-04-27T03:36:36.270Z,0
2018-04-27T03:37:02.399Z,0
2018-04-27T03:37:28.629Z,0
2018-04-27T03:37:54.692Z,0
2018-04-27T03:38:20.855Z,0
2018-04-27T03:38:46.985Z,0
2018-04-27T03:39:13.126Z,0
2018-04-27T03:39:39.257Z,0
2018-04-27T03:40:05.394Z,0
2018-04-27T03:40:31.524Z,0
2018-04-27T03:40:57.660Z,0
2018-04-27T03:41:23.800Z,0
2018-04-27T03:41:49.937Z,0
2018-04-27T03:42:16.076Z,0
2018-04-27T03:42:42.217Z,0
2018-04-27T03:43:08.353Z,0
2018-04-27T03:43:34.514Z,0
2018-04-27T03:44:00.651Z,0
2018-04-27T03:44:26.789Z,0
2018-04-27T03:44:52.923Z,0
2018-04-27T03:45:19.162Z,0
2018-04-27T03:45:45.206Z,0
2018-04-27T03:46:11.340Z,0
2018-04-27T03:46:37.506Z,0
2018-04-27T03:47:03.639Z,0
2018-04-27T03:47:29.782Z,0
2018-04-27T03:47:55.918Z,0
2018-04-27T03:48:22.052Z,0
2018-04-27T03:48:48.191Z,0
2018-04-27T03:49:14.360Z,0
2018-04-27T03:49:40.497Z,0
2018-04-27T03:50:06.634Z,0
2018-04-27T03:50:32.775Z,0
2018-04-27T03:50:58.912Z,0
2018-04-27T03:51:25.052Z,0
2018-04-27T03:51:51.284Z,0
2018-04-27T03:52:17.327Z,0
2018-04-27T03:52:43.488Z,0
2018-04-27T03:53:09.636Z,0
2018-04-27T03:53:35.769Z,0
2018-04-27T03:54:01.905Z,0
2018-04-27T03:54:28.040Z,0
2018-04-27T03:54:54.179Z,0
2018-04-27T03:55:20.314Z,0
2018-04-27T03:55:46.445Z,0
2018-04-27T03:56:12.585Z,0
2018-04-27T03:56:38.723Z,0
2018-04-27T03:57:04.860Z,0
2018-04-27T03:57:30.994Z,0
2018-04-27T03:57:57.134Z,0
2018-04-27T03:58:23.273Z,0
2018-04-27T03:58:49.417Z,0
2018-04-27T03:59:15.576Z,0
2018-04-27T03:59:41.706Z,0
2018-04-27T04:00:07.843Z,0
2018-04-27T04:00:33.984Z,5
2018-04-27T04:01:00.168Z,5
2018-04-27T04:01:26.253Z,5
2018-04-27T04:01:52.388Z,5
2018-04-27T04:02:18.516Z,5
2018-04-27T04:02:44.650Z,5
2018-04-27T04:03:10.816Z,5
2018-04-27T04:03:36.955Z,5
2018-04-27T04:04:03.085Z,5
2018-04-27T04:04:29.243Z,5
2018-04-27T04:04:55.383Z,5
2018-04-27T04:05:21.514Z,5
2018-04-27T04:05:47.656Z,5
2018-04-27T04:06:13.792Z,5
2018-04-27T04:06:39.933Z,5
2018-04-27T04:07:06.076Z,5
2018-04-27T04:07:32.207Z,5
2018-04-27T04:07:58.344Z,5
2018-04-27T04:08:24.480Z,5
2018-04-27T04:08:50.611Z,10
2018-04-27T04:09:16.755Z,10
2018-04-27T04:09:42.884Z,10
2018-04-27T04:10:09.032Z,10
2018-04-27T04:10:35.162Z,10
2018-04-27T04:11:01.304Z,10
2018-04-27T04:11:27.445Z,10
2018-04-27T04:11:53.579Z,10
2018-04-27T04:12:19.719Z,10
2018-04-27T04:12:45.854Z,10
2018-04-27T04:13:11.995Z,10
2018-04-27T04:13:38.166Z,10
2018-04-27T04:14:04.265Z,10
2018-04-27T04:14:30.426Z,10
2018-04-27T04:14:56.565Z,10
2018-04-27T04:15:22.692Z,15
2018-04-27T04:15:48.831Z,15
2018-04-27T04:16:14.965Z,15
2018-04-27T04:16:41.107Z,15
2018-04-27T04:17:07.236Z,15
2018-04-27T04:17:33.366Z,15
2018-04-27T04:17:59.505Z,15
2018-04-27T04:18:25.636Z,15
2018-04-27T04:18:51.773Z,15
2018-04-27T04:19:17.959Z,15
2018-04-27T04:19:44.090Z,15
2018-04-27T04:20:10.228Z,15
2018-04-27T04:20:36.363Z,20
2018-04-27T04:21:02.496Z,20
2018-04-27T04:21:28.674Z,20
2018-04-27T04:21:54.809Z,20
2018-04-27T04:22:20.949Z,20
2018-04-27T04:22:47.105Z,20
2018-04-27T04:23:13.246Z,20
2018-04-27T04:23:39.380Z,20
2018-04-27T04:24:05.537Z,20
2018-04-27T04:24:31.682Z,20
2018-04-27T04:24:57.813Z,25
2018-04-27T04:25:23.955Z,25
2018-04-27T04:25:50.086Z,25
2018-04-27T04:26:16.233Z,25
2018-04-27T04:26:42.362Z,25
2018-04-27T04:27:08.528Z,25
2018-04-27T04:27:34.713Z,25
2018-04-27T04:28:00.852Z,25
2018-04-27T04:28:26.984Z,25
2018-04-27T04:28:53.159Z,30
2018-04-27T04:29:19.296Z,30
2018-04-27T04:29:45.435Z,30
2018-04-27T04:30:11.572Z,30
2018-04-27T04:30:37.759Z,30
2018-04-27T04:31:03.899Z,30
2018-04-27T04:31:30.030Z,30
2018-04-27T04:31:56.169Z,30
2018-04-27T04:32:22.307Z,30
2018-04-27T04:32:48.446Z,35
2018-04-27T04:33:14.579Z,35
2018-04-27T04:33:40.715Z,35
2018-04-27T04:34:06.851Z,35
2018-04-27T04:34:33.015Z,35
2018-04-27T04:34:59.148Z,35
2018-04-27T04:35:25.281Z,35
2018-04-27T04:35:51.421Z,35
2018-04-27T04:36:17.564Z,40
2018-04-27T04:36:43.727Z,40
2018-04-27T04:37:09.889Z,40
2018-04-27T04:37:36.060Z,40
2018-04-27T04:38:02.198Z,40
2018-04-27T04:38:28.355Z,40
2018-04-27T04:38:54.491Z,40
2018-04-27T04:39:20.630Z,45
2018-04-27T04:39:46.789Z,45
2018-04-27T04:40:12.942Z,45
2018-04-27T04:40:39.080Z,45
2018-04-27T04:41:05.218Z,45
2018-04-27T04:41:31.357Z,45
2018-04-27T04:41:57.495Z,50
2018-04-27T04:42:23.655Z,50
2018-04-27T04:42:49.787Z,50
2018-04-27T04:43:15.916Z,50
2018-04-27T04:43:42.065Z,50
2018-04-27T04:44:08.223Z,55
2018-04-27T04:44:34.353Z,55
2018-04-27T04:45:00.592Z,55
2018-04-27T04:45:26.652Z,55
2018-04-27T04:45:52.785Z,55
2018-04-27T04:46:18.930Z,55
2018-04-27T04:46:45.062Z,60
2018-04-27T04:47:11.203Z,60
2018-04-27T04:47:37.379Z,60
2018-04-27T04:48:03.520Z,60
2018-04-27T04:48:29.681Z,60
2018-04-27T04:48:55.867Z,65
2018-04-27T04:49:22.004Z,65
2018-04-27T04:49:48.162Z,65
2018-04-27T04:50:14.324Z,65
2018-04-27T04:50:40.476Z,65
2018-04-27T04:51:06.618Z,70
2018-04-27T04:51:32.753Z,70
2018-04-27T04:51:58.894Z,70
2018-04-27T04:52:25.096Z,70
2018-04-27T04:52:51.214Z,70
2018-04-27T04:53:17.356Z,75
2018-04-27T04:53:43.517Z,75
2018-04-27T04:54:09.654Z,75
2018-04-27T04:54:35.793Z,75
2018-04-27T04:55:01.946Z,80
2018-04-27T04:55:28.084Z,80
2018-04-27T04:55:54.241Z,80
2018-04-27T04:56:20.412Z,85
2018-04-27T04:56:46.550Z,85
2018-04-27T04:57:12.682Z,90
2018-04-27T04:57:38.823Z,90
2018-04-27T04:58:04.964Z,95
2018-04-27T04:58:31.098Z,95
2018-04-27T04:58:57.233Z,95
2018-04-27T04:59:23.388Z,95
2018-04-27T04:59:49.539Z,100
2018-04-27T05:00:15.691Z,100
2018-04-27T05:00:41.825Z,100
2018-04-27T05:01:07.970Z,100
2018-04-27T05:01:34.123Z,100
2018-04-27T05:02:00.287Z,105
2018-04-27T05:02:26.448Z,105
2018-04-27T05:02:52.612Z,105
2018-04-27T05:03:18.746Z,105
2018-04-27T05:03:44.888Z,105
2018-04-27T05:04:11.021Z,105
2018-04-27T05:04:37.155Z,110
2018-04-27T05:05:03.294Z,110
2018-04-27T05:05:29.428Z,110
2018-04-27T05:05:55.566Z,110
2018-04-27T05:06:21.701Z,110
2018-04-27T05:06:47.841Z,115
2018-04-27T05:07:13.974Z,115
2018-04-27T05:07:40.136Z,115
2018-04-27T05:08:06.279Z,120
2018-04-27T05:08:32.415Z,120
2018-04-27T05:08:58.558Z,120
2018-04-27T05:09:24.688Z,120
2018-04-27T05:09:50.825Z,125
2018-04-27T05:10:16.968Z,125
2018-04-27T05:10:43.144Z,125
2018-04-27T05:11:09.242Z,125
2018-04-27T05:11:35.402Z,130
2018-04-27T05:12:01.544Z,130
2018-04-27T05:12:27.681Z,130
2018-04-27T05:12:53.817Z,130
2018-04-27T05:13:19.961Z,135
2018-04-27T05:13:46.092Z,135
2018-04-27T05:14:12.231Z,135
2018-04-27T05:14:38.365Z,135
2018-04-27T05:15:04.498Z,135
2018-04-27T05:15:30.642Z,140
2018-04-27T05:15:56.770Z,140
2018-04-27T05:16:22.914Z,140
2018-04-27T05:16:49.045Z,140
2018-04-27T05:17:15.216Z,140
2018-04-27T05:17:41.354Z,145
2018-04-27T05:18:07.514Z,140
2018-04-27T05:18:33.648Z,140
2018-04-27T05:18:59.786Z,140
2018-04-27T05:19:25.919Z,140
2018-04-27T05:19:52.083Z,140
2018-04-27T05:20:18.230Z,140
2018-04-27T05:20:44.406Z,140
2018-04-27T05:21:10.547Z,145
2018-04-27T05:21:36.717Z,150
2018-04-27T05:22:02.851Z,150
2018-04-27T05:22:28.990Z,150
2018-04-27T05:22:55.126Z,150
2018-04-27T05:23:21.262Z,150
2018-04-27T05:23:47.394Z,150
2018-04-27T05:24:13.547Z,155
2018-04-27T05:24:39.716Z,150
2018-04-27T05:25:05.866Z,150
2018-04-27T05:25:32.033Z,155
2018-04-27T05:25:58.166Z,155
2018-04-27T05:26:24.307Z,155
2018-04-27T05:26:50.445Z,155
2018-04-27T05:27:16.581Z,155
2018-04-27T05:27:42.715Z,155
2018-04-27T05:28:08.858Z,155
2018-04-27T05:28:34.994Z,155
2018-04-27T05:29:01.134Z,155
2018-04-27T05:29:27.287Z,160
2018-04-27T05:29:53.444Z,155
2018-04-27T05:30:19.592Z,155
2018-04-27T05:30:45.750Z,155
2018-04-27T05:31:11.883Z,150
2018-04-27T05:31:38.031Z,150
2018-04-27T05:32:04.163Z,145
2018-04-27T05:32:30.297Z,150
2018-04-27T05:32:56.440Z,160
2018-04-27T05:33:22.577Z,160
2018-04-27T05:33:48.720Z,165
2018-04-27T05:34:14.878Z,165
2018-04-27T05:34:41.015Z,160
2018-04-27T05:35:07.177Z,155
2018-04-27T05:35:33.316Z,160
2018-04-27T05:35:59.448Z,160
2018-04-27T05:36:25.587Z,160
2018-04-27T05:36:51.746Z,165
2018-04-27T05:37:17.888Z,170
2018-04-27T05:37:44.027Z,165
2018-04-27T05:38:10.167Z,170
2018-04-27T05:38:36.303Z,170
2018-04-27T05:39:02.441Z,170
2018-04-27T05:39:28.579Z,170
2018-04-27T05:39:54.711Z,175
2018-04-27T05:40:20.842Z,175
2018-04-27T05:40:46.984Z,175
2018-04-27T05:41:13.118Z,175
2018-04-27T05:41:39.258Z,175
2018-04-27T05:42:05.395Z,175
2018-04-27T05:42:31.527Z,175
2018-04-27T05:42:57.660Z,180
2018-04-27T05:43:23.806Z,185
2018-04-27T05:43:49.933Z,185
2018-04-27T05:44:16.077Z,190
2018-04-27T05:44:42.250Z,190
2018-04-27T05:45:08.442Z,190
2018-04-27T05:45:34.574Z,195
2018-04-27T05:46:00.714Z,195
2018-04-27T05:46:26.859Z,195
2018-04-27T05:46:52.989Z,200
2018-04-27T05:47:19.131Z,200
2018-04-27T05:47:45.270Z,200
2018-04-27T05:48:11.496Z,205
2018-04-27T05:48:37.548Z,205
2018-04-27T05:49:03.748Z,205
2018-04-27T05:49:30.011Z,210
2018-04-27T05:49:56.046Z,210
2018-04-27T05:50:22.186Z,215
2018-04-27T05:50:48.334Z,220
2018-04-27T05:51:14.518Z,220
2018-04-27T05:51:40.645Z,225
2018-04-27T05:52:06.779Z,230
2018-04-27T05:52:32.919Z,230
2018-04-27T05:52:59.080Z,230
2018-04-27T05:53:25.216Z,230
2018-04-27T05:53:51.348Z,230
2018-04-27T05:54:17.486Z,235
2018-04-27T05:54:43.624Z,230
2018-04-27T05:55:09.762Z,230
2018-04-27T05:55:35.996Z,230
2018-04-27T05:56:02.063Z,235
2018-04-27T05:56:28.200Z,230
2018-04-27T05:56:54.339Z,225
2018-04-27T05:57:20.502Z,225
2018-04-27T05:57:46.660Z,225
2018-04-27T05:58:12.805Z,220
2018-04-27T05:58:38.945Z,220
2018-04-27T05:59:05.077Z,220
2018-04-27T05:59:31.235Z,210
2018-04-27T05:59:57.378Z,215
2018-04-27T06:00:23.513Z,220
2018-04-27T06:00:49.654Z,215
2018-04-27T06:01:15.785Z,215
2018-04-27T06:01:41.952Z,215
2018-04-27T06:02:08.092Z,215
2018-04-27T06:02:34.253Z,215
2018-04-27T06:03:00.392Z,220
2018-04-27T06:03:26.530Z,220
2018-04-27T06:03:52.666Z,225
2018-04-27T06:04:18.801Z,225
2018-04-27T06:04:45.010Z,225
2018-04-27T06:05:11.085Z,225
2018-04-27T06:05:37.224Z,230
2018-04-27T06:06:03.358Z,230
2018-04-27T06:06:29.492Z,235
2018-04-27T06:06:55.634Z,235
2018-04-27T06:07:21.778Z,240
2018-04-27T06:07:47.911Z,240
2018-04-27T06:08:14.078Z,245
2018-04-27T06:08:40.584Z,250
2018-04-27T06:09:06.724Z,250
2018-04-27T06:09:32.872Z,255
2018-04-27T06:09:59.006Z,260
2018-04-27T06:10:25.154Z,260
2018-04-27T06:10:51.280Z,260
2018-04-27T06:11:17.420Z,265
2018-04-27T06:11:43.578Z,265
2018-04-27T06:12:09.750Z,260
2018-04-27T06:12:35.884Z,260
2018-04-27T06:13:02.031Z,255
2018-04-27T06:13:28.159Z,260
2018-04-27T06:13:54.548Z,265
2018-04-27T06:14:20.693Z,260
2018-04-27T06:14:46.824Z,255
2018-04-27T06:15:12.964Z,265
2018-04-27T06:15:39.127Z,265
2018-04-27T06:16:05.382Z,265
2018-04-27T06:16:31.430Z,265
2018-04-27T06:16:57.564Z,265
2018-04-27T06:17:23.729Z,265
2018-04-27T06:17:49.863Z,265
2018-04-27T06:18:16.000Z,265
2018-04-27T06:18:42.143Z,265
2018-04-27T06:19:08.272Z,270